sensor_id;sensor_type;location;lat;lon;timestamp;temperature;humidity
71837;DHT22;59686;51.716;7.016;2023-12-29T00:00:25;10.80;97.20
71837;DHT22;59686;51.716;7.016;2023-12-29T00:02:51;10.90;97.30
71837;DHT22;59686;51.716;7.016;2023-12-29T00:05:17;10.80;97.20
71837;DHT22;59686;51.716;7.016;2023-12-29T00:07:42;10.90;97.20
71837;DHT22;59686;51.716;7.016;2023-12-29T00:10:08;10.90;97.30
71837;DHT22;59686;51.716;7.016;2023-12-29T00:12:34;10.90;97.30
71837;DHT22;59686;51.716;7.016;2023-12-29T00:15:03;10.90;97.30
71837;DHT22;59686;51.716;7.016;2023-12-29T00:17:29;10.90;97.40
71837;DHT22;59686;51.716;7.016;2023-12-29T00:19:55;10.90;97.30
71837;DHT22;59686;51.716;7.016;2023-12-29T00:22:21;10.90;97.30
71837;DHT22;59686;51.716;7.016;2023-12-29T00:24:46;10.90;97.30
71837;DHT22;59686;51.716;7.016;2023-12-29T00:27:13;10.90;97.30
71837;DHT22;59686;51.716;7.016;2023-12-29T00:29:39;10.90;97.30
71837;DHT22;59686;51.716;7.016;2023-12-29T00:32:05;10.90;97.40
71837;DHT22;59686;51.716;7.016;2023-12-29T00:34:31;10.90;97.20
71837;DHT22;59686;51.716;7.016;2023-12-29T00:36:56;10.90;97.30
71837;DHT22;59686;51.716;7.016;2023-12-29T00:39:22;10.90;97.20
71837;DHT22;59686;51.716;7.016;2023-12-29T00:41:54;10.90;97.20
71837;DHT22;59686;51.716;7.016;2023-12-29T00:44:22;11.00;97.30
71837;DHT22;59686;51.716;7.016;2023-12-29T00:46:47;10.80;97.20
71837;DHT22;59686;51.716;7.016;2023-12-29T00:49:13;10.90;97.30
71837;DHT22;59686;51.716;7.016;2023-12-29T00:51:39;10.90;97.30
71837;DHT22;59686;51.716;7.016;2023-12-29T00:54:07;10.90;97.20
71837;DHT22;59686;51.716;7.016;2023-12-29T00:56:36;10.90;97.60
71837;DHT22;59686;51.716;7.016;2023-12-29T00:59:01;10.90;97.20
71837;DHT22;59686;51.716;7.016;2023-12-29T01:01:27;10.90;97.20
71837;DHT22;59686;51.716;7.016;2023-12-29T01:03:55;10.90;97.40
71837;DHT22;59686;51.716;7.016;2023-12-29T01:06:20;10.90;97.40
71837;DHT22;59686;51.716;7.016;2023-12-29T01:08:46;10.90;97.30
71837;DHT22;59686;51.716;7.016;2023-12-29T01:11:12;10.90;97.30
71837;DHT22;59686;51.716;7.016;2023-12-29T01:13:38;11.00;97.30
71837;DHT22;59686;51.716;7.016;2023-12-29T01:16:04;10.90;97.30
71837;DHT22;59686;51.716;7.016;2023-12-29T01:18:32;10.90;97.30
71837;DHT22;59686;51.716;7.016;2023-12-29T01:20:57;10.90;97.30
71837;DHT22;59686;51.716;7.016;2023-12-29T01:23:23;10.90;97.40
71837;DHT22;59686;51.716;7.016;2023-12-29T01:25:49;10.90;97.50
71837;DHT22;59686;51.716;7.016;2023-12-29T01:28:14;10.90;97.60
71837;DHT22;59686;51.716;7.016;2023-12-29T01:30:40;10.90;97.80
71837;DHT22;59686;51.716;7.016;2023-12-29T01:33:06;10.90;97.90
71837;DHT22;59686;51.716;7.016;2023-12-29T01:35:31;10.90;98.00
71837;DHT22;59686;51.716;7.016;2023-12-29T01:37:57;10.90;98.10
71837;DHT22;59686;51.716;7.016;2023-12-29T01:40:23;10.90;98.10
71837;DHT22;59686;51.716;7.016;2023-12-29T01:42:48;10.90;98.20
71837;DHT22;59686;51.716;7.016;2023-12-29T01:45:23;10.90;98.20
71837;DHT22;59686;51.716;7.016;2023-12-29T01:47:50;10.90;98.20
71837;DHT22;59686;51.716;7.016;2023-12-29T01:50:21;10.90;98.30
71837;DHT22;59686;51.716;7.016;2023-12-29T01:52:48;10.90;98.30
71837;DHT22;59686;51.716;7.016;2023-12-29T01:55:18;10.90;98.20
71837;DHT22;59686;51.716;7.016;2023-12-29T01:57:50;10.90;98.20
71837;DHT22;59686;51.716;7.016;2023-12-29T02:00:17;10.90;98.30
71837;DHT22;59686;51.716;7.016;2023-12-29T02:02:53;10.90;98.40
71837;DHT22;59686;51.716;7.016;2023-12-29T02:05:20;11.00;98.50
71837;DHT22;59686;51.716;7.016;2023-12-29T02:07:47;10.80;98.50
71837;DHT22;59686;51.716;7.016;2023-12-29T02:10:15;10.80;98.60
71837;DHT22;59686;51.716;7.016;2023-12-29T02:12:41;10.80;98.70
71837;DHT22;59686;51.716;7.016;2023-12-29T02:15:07;10.80;98.80
71837;DHT22;59686;51.716;7.016;2023-12-29T02:17:58;10.80;98.80
71837;DHT22;59686;51.716;7.016;2023-12-29T02:20:25;10.90;98.90
71837;DHT22;59686;51.716;7.016;2023-12-29T02:22:54;10.80;99.00
71837;DHT22;59686;51.716;7.016;2023-12-29T02:25:20;10.80;99.10
71837;DHT22;59686;51.716;7.016;2023-12-29T02:28:23;10.80;99.10
71837;DHT22;59686;51.716;7.016;2023-12-29T02:30:59;10.80;99.20
71837;DHT22;59686;51.716;7.016;2023-12-29T02:33:26;10.80;99.20
71837;DHT22;59686;51.716;7.016;2023-12-29T02:36:01;10.80;99.40
71837;DHT22;59686;51.716;7.016;2023-12-29T02:38:29;10.80;99.40
71837;DHT22;59686;51.716;7.016;2023-12-29T02:40:56;10.80;99.60
71837;DHT22;59686;51.716;7.016;2023-12-29T02:43:22;10.80;99.50
71837;DHT22;59686;51.716;7.016;2023-12-29T02:45:47;10.80;99.50
71837;DHT22;59686;51.716;7.016;2023-12-29T02:48:13;10.80;99.60
71837;DHT22;59686;51.716;7.016;2023-12-29T02:50:39;10.80;99.60
71837;DHT22;59686;51.716;7.016;2023-12-29T02:53:04;10.80;99.70
71837;DHT22;59686;51.716;7.016;2023-12-29T02:55:30;10.60;99.60
71837;DHT22;59686;51.716;7.016;2023-12-29T02:57:56;10.70;99.70
71837;DHT22;59686;51.716;7.016;2023-12-29T03:00:21;10.80;99.70
71837;DHT22;59686;51.716;7.016;2023-12-29T03:02:47;10.80;99.70
71837;DHT22;59686;51.716;7.016;2023-12-29T03:05:14;10.80;99.80
71837;DHT22;59686;51.716;7.016;2023-12-29T03:07:40;10.80;99.90
71837;DHT22;59686;51.716;7.016;2023-12-29T03:10:07;10.80;99.80
71837;DHT22;59686;51.716;7.016;2023-12-29T03:12:32;10.80;99.90
71837;DHT22;59686;51.716;7.016;2023-12-29T03:14:58;10.80;99.80
71837;DHT22;59686;51.716;7.016;2023-12-29T03:17:24;10.80;99.80
71837;DHT22;59686;51.716;7.016;2023-12-29T03:19:50;10.70;99.80
71837;DHT22;59686;51.716;7.016;2023-12-29T03:22:16;10.80;99.80
71837;DHT22;59686;51.716;7.016;2023-12-29T03:24:42;10.80;99.80
71837;DHT22;59686;51.716;7.016;2023-12-29T03:27:08;10.80;99.80
71837;DHT22;59686;51.716;7.016;2023-12-29T03:29:34;10.80;99.80
71837;DHT22;59686;51.716;7.016;2023-12-29T03:31:59;10.80;99.80
71837;DHT22;59686;51.716;7.016;2023-12-29T03:34:25;10.80;99.80
71837;DHT22;59686;51.716;7.016;2023-12-29T03:36:51;10.80;99.80
71837;DHT22;59686;51.716;7.016;2023-12-29T03:39:16;10.80;99.70
71837;DHT22;59686;51.716;7.016;2023-12-29T03:41:42;10.80;99.80
71837;DHT22;59686;51.716;7.016;2023-12-29T03:44:08;10.80;99.80
71837;DHT22;59686;51.716;7.016;2023-12-29T03:46:33;10.80;99.90
71837;DHT22;59686;51.716;7.016;2023-12-29T03:49:33;10.80;99.80
71837;DHT22;59686;51.716;7.016;2023-12-29T03:51:59;10.80;99.80
71837;DHT22;59686;51.716;7.016;2023-12-29T03:54:25;10.90;99.90
71837;DHT22;59686;51.716;7.016;2023-12-29T03:56:50;10.80;99.80
71837;DHT22;59686;51.716;7.016;2023-12-29T03:59:17;10.80;99.80
71837;DHT22;59686;51.716;7.016;2023-12-29T04:01:42;10.80;99.90
71837;DHT22;59686;51.716;7.016;2023-12-29T04:04:09;10.80;99.80
71837;DHT22;59686;51.716;7.016;2023-12-29T04:06:35;10.80;99.80
71837;DHT22;59686;51.716;7.016;2023-12-29T04:09:00;10.80;99.80
71837;DHT22;59686;51.716;7.016;2023-12-29T04:11:26;10.80;99.70
71837;DHT22;59686;51.716;7.016;2023-12-29T04:13:52;10.80;99.70
71837;DHT22;59686;51.716;7.016;2023-12-29T04:16:18;10.80;99.70
71837;DHT22;59686;51.716;7.016;2023-12-29T04:18:43;10.80;99.70
71837;DHT22;59686;51.716;7.016;2023-12-29T04:21:14;10.80;99.70
71837;DHT22;59686;51.716;7.016;2023-12-29T04:23:39;10.80;99.60
71837;DHT22;59686;51.716;7.016;2023-12-29T04:26:07;10.80;99.60
71837;DHT22;59686;51.716;7.016;2023-12-29T04:28:33;10.90;99.70
71837;DHT22;59686;51.716;7.016;2023-12-29T04:30:59;10.80;99.60
71837;DHT22;59686;51.716;7.016;2023-12-29T04:33:24;10.80;99.60
71837;DHT22;59686;51.716;7.016;2023-12-29T04:35:50;10.80;99.60
71837;DHT22;59686;51.716;7.016;2023-12-29T04:38:16;10.80;99.50
71837;DHT22;59686;51.716;7.016;2023-12-29T04:40:44;10.80;99.50
71837;DHT22;59686;51.716;7.016;2023-12-29T04:43:10;10.80;99.40
71837;DHT22;59686;51.716;7.016;2023-12-29T04:45:36;10.80;99.40
71837;DHT22;59686;51.716;7.016;2023-12-29T04:48:02;10.70;99.40
71837;DHT22;59686;51.716;7.016;2023-12-29T04:50:27;10.80;99.40
71837;DHT22;59686;51.716;7.016;2023-12-29T04:52:53;10.70;99.30
71837;DHT22;59686;51.716;7.016;2023-12-29T04:55:19;10.80;99.30
71837;DHT22;59686;51.716;7.016;2023-12-29T04:57:44;10.80;99.30
71837;DHT22;59686;51.716;7.016;2023-12-29T05:00:10;10.70;99.60
71837;DHT22;59686;51.716;7.016;2023-12-29T05:02:36;10.80;99.20
71837;DHT22;59686;51.716;7.016;2023-12-29T05:05:03;10.80;99.20
71837;DHT22;59686;51.716;7.016;2023-12-29T05:07:29;10.80;99.20
71837;DHT22;59686;51.716;7.016;2023-12-29T05:09:54;10.80;99.20
71837;DHT22;59686;51.716;7.016;2023-12-29T05:12:20;10.80;99.20
71837;DHT22;59686;51.716;7.016;2023-12-29T05:14:46;10.80;99.10
71837;DHT22;59686;51.716;7.016;2023-12-29T05:17:11;10.80;99.10
71837;DHT22;59686;51.716;7.016;2023-12-29T05:19:42;10.80;99.10
71837;DHT22;59686;51.716;7.016;2023-12-29T05:22:08;10.80;99.00
71837;DHT22;59686;51.716;7.016;2023-12-29T05:24:34;10.80;99.00
71837;DHT22;59686;51.716;7.016;2023-12-29T05:26:59;10.70;99.00
71837;DHT22;59686;51.716;7.016;2023-12-29T05:29:26;10.80;99.00
71837;DHT22;59686;51.716;7.016;2023-12-29T05:32:01;10.80;99.00
71837;DHT22;59686;51.716;7.016;2023-12-29T05:34:28;10.80;99.00
71837;DHT22;59686;51.716;7.016;2023-12-29T05:36:54;10.80;98.90
71837;DHT22;59686;51.716;7.016;2023-12-29T05:39:19;10.80;98.90
71837;DHT22;59686;51.716;7.016;2023-12-29T05:41:45;10.80;98.90
71837;DHT22;59686;51.716;7.016;2023-12-29T05:44:11;10.80;98.80
71837;DHT22;59686;51.716;7.016;2023-12-29T05:46:36;10.80;98.80
71837;DHT22;59686;51.716;7.016;2023-12-29T05:49:02;10.80;98.90
71837;DHT22;59686;51.716;7.016;2023-12-29T05:51:28;10.80;98.80
71837;DHT22;59686;51.716;7.016;2023-12-29T05:53:54;10.80;98.70
71837;DHT22;59686;51.716;7.016;2023-12-29T05:56:20;10.80;98.90
71837;DHT22;59686;51.716;7.016;2023-12-29T05:58:45;10.80;98.80
71837;DHT22;59686;51.716;7.016;2023-12-29T06:01:11;10.80;98.90
71837;DHT22;59686;51.716;7.016;2023-12-29T06:03:37;10.80;98.80
71837;DHT22;59686;51.716;7.016;2023-12-29T06:06:03;10.80;98.80
71837;DHT22;59686;51.716;7.016;2023-12-29T06:08:29;10.80;98.80
71837;DHT22;59686;51.716;7.016;2023-12-29T06:10:54;10.80;98.80
71837;DHT22;59686;51.716;7.016;2023-12-29T06:13:20;10.80;98.70
71837;DHT22;59686;51.716;7.016;2023-12-29T06:15:46;10.80;98.60
71837;DHT22;59686;51.716;7.016;2023-12-29T06:18:12;10.80;98.60
71837;DHT22;59686;51.716;7.016;2023-12-29T06:20:38;10.80;98.60
71837;DHT22;59686;51.716;7.016;2023-12-29T06:23:03;10.80;98.50
71837;DHT22;59686;51.716;7.016;2023-12-29T06:25:29;10.80;98.50
71837;DHT22;59686;51.716;7.016;2023-12-29T06:27:55;10.80;98.50
71837;DHT22;59686;51.716;7.016;2023-12-29T06:30:21;10.80;98.40
71837;DHT22;59686;51.716;7.016;2023-12-29T06:32:47;10.80;98.40
71837;DHT22;59686;51.716;7.016;2023-12-29T06:35:12;10.80;98.30
71837;DHT22;59686;51.716;7.016;2023-12-29T06:37:39;10.80;98.30
71837;DHT22;59686;51.716;7.016;2023-12-29T06:40:09;10.80;98.30
71837;DHT22;59686;51.716;7.016;2023-12-29T06:42:35;10.80;98.30
71837;DHT22;59686;51.716;7.016;2023-12-29T06:45:00;10.80;98.30
71837;DHT22;59686;51.716;7.016;2023-12-29T06:47:27;10.80;98.20
71837;DHT22;59686;51.716;7.016;2023-12-29T06:49:52;10.80;98.30
71837;DHT22;59686;51.716;7.016;2023-12-29T06:52:18;10.80;98.40
71837;DHT22;59686;51.716;7.016;2023-12-29T06:54:44;10.80;98.30
71837;DHT22;59686;51.716;7.016;2023-12-29T06:57:10;10.80;98.40
71837;DHT22;59686;51.716;7.016;2023-12-29T06:59:37;10.80;98.40
71837;DHT22;59686;51.716;7.016;2023-12-29T07:02:02;10.80;98.30
71837;DHT22;59686;51.716;7.016;2023-12-29T07:04:30;10.80;98.40
71837;DHT22;59686;51.716;7.016;2023-12-29T07:06:55;10.80;98.40
71837;DHT22;59686;51.716;7.016;2023-12-29T07:09:21;10.80;98.40
71837;DHT22;59686;51.716;7.016;2023-12-29T07:11:48;10.80;98.50
71837;DHT22;59686;51.716;7.016;2023-12-29T07:14:16;10.80;98.30
71837;DHT22;59686;51.716;7.016;2023-12-29T07:16:43;10.80;98.40
71837;DHT22;59686;51.716;7.016;2023-12-29T07:19:09;10.80;98.40
71837;DHT22;59686;51.716;7.016;2023-12-29T07:21:34;10.80;98.40
71837;DHT22;59686;51.716;7.016;2023-12-29T07:24:00;10.80;98.50
71837;DHT22;59686;51.716;7.016;2023-12-29T07:26:26;10.80;98.50
71837;DHT22;59686;51.716;7.016;2023-12-29T07:28:52;10.80;98.50
71837;DHT22;59686;51.716;7.016;2023-12-29T07:31:20;10.80;98.60
71837;DHT22;59686;51.716;7.016;2023-12-29T07:33:46;10.80;98.80
71837;DHT22;59686;51.716;7.016;2023-12-29T07:36:12;10.80;98.90
71837;DHT22;59686;51.716;7.016;2023-12-29T07:38:38;10.70;98.90
71837;DHT22;59686;51.716;7.016;2023-12-29T07:41:04;10.80;99.00
71837;DHT22;59686;51.716;7.016;2023-12-29T07:43:31;10.80;99.00
71837;DHT22;59686;51.716;7.016;2023-12-29T07:45:57;10.80;99.10
71837;DHT22;59686;51.716;7.016;2023-12-29T07:48:23;10.80;99.10
71837;DHT22;59686;51.716;7.016;2023-12-29T07:50:49;10.80;99.20
71837;DHT22;59686;51.716;7.016;2023-12-29T07:53:43;10.80;99.10
71837;DHT22;59686;51.716;7.016;2023-12-29T07:56:10;10.70;99.10
71837;DHT22;59686;51.716;7.016;2023-12-29T07:58:36;10.80;99.20
71837;DHT22;59686;51.716;7.016;2023-12-29T08:01:02;10.70;99.20
71837;DHT22;59686;51.716;7.016;2023-12-29T08:03:27;10.80;99.10
71837;DHT22;59686;51.716;7.016;2023-12-29T08:06:10;10.80;99.20
71837;DHT22;59686;51.716;7.016;2023-12-29T08:08:37;10.80;99.20
71837;DHT22;59686;51.716;7.016;2023-12-29T08:11:03;10.80;99.20
71837;DHT22;59686;51.716;7.016;2023-12-29T08:13:29;10.70;99.20
71837;DHT22;59686;51.716;7.016;2023-12-29T08:15:57;10.90;99.30
71837;DHT22;59686;51.716;7.016;2023-12-29T08:18:22;10.80;99.20
71837;DHT22;59686;51.716;7.016;2023-12-29T08:20:48;10.80;99.20
71837;DHT22;59686;51.716;7.016;2023-12-29T08:23:30;10.80;99.30
71837;DHT22;59686;51.716;7.016;2023-12-29T08:25:57;10.80;99.30
71837;DHT22;59686;51.716;7.016;2023-12-29T08:28:28;10.80;99.30
71837;DHT22;59686;51.716;7.016;2023-12-29T08:30:54;10.80;99.40
71837;DHT22;59686;51.716;7.016;2023-12-29T08:33:20;10.80;99.50
71837;DHT22;59686;51.716;7.016;2023-12-29T08:35:46;10.80;99.50
71837;DHT22;59686;51.716;7.016;2023-12-29T08:38:11;10.80;99.50
71837;DHT22;59686;51.716;7.016;2023-12-29T08:40:37;10.80;99.60
71837;DHT22;59686;51.716;7.016;2023-12-29T08:43:03;10.80;99.70
71837;DHT22;59686;51.716;7.016;2023-12-29T08:45:29;10.80;99.60
71837;DHT22;59686;51.716;7.016;2023-12-29T08:47:55;10.80;99.60
71837;DHT22;59686;51.716;7.016;2023-12-29T08:50:20;10.80;99.60
71837;DHT22;59686;51.716;7.016;2023-12-29T08:52:47;10.80;99.60
71837;DHT22;59686;51.716;7.016;2023-12-29T08:55:13;10.80;99.70
71837;DHT22;59686;51.716;7.016;2023-12-29T08:57:38;10.80;99.60
71837;DHT22;59686;51.716;7.016;2023-12-29T09:00:05;10.80;99.70
71837;DHT22;59686;51.716;7.016;2023-12-29T09:02:30;10.80;99.60
71837;DHT22;59686;51.716;7.016;2023-12-29T09:04:56;10.80;99.70
71837;DHT22;59686;51.716;7.016;2023-12-29T09:07:22;10.80;99.70
71837;DHT22;59686;51.716;7.016;2023-12-29T09:09:48;10.80;99.70
71837;DHT22;59686;51.716;7.016;2023-12-29T09:12:13;10.80;99.70
71837;DHT22;59686;51.716;7.016;2023-12-29T09:14:39;10.80;99.70
71837;DHT22;59686;51.716;7.016;2023-12-29T09:17:05;10.80;99.70
71837;DHT22;59686;51.716;7.016;2023-12-29T09:19:30;10.80;99.70
71837;DHT22;59686;51.716;7.016;2023-12-29T09:21:56;10.80;99.60
71837;DHT22;59686;51.716;7.016;2023-12-29T09:24:22;10.80;99.60
71837;DHT22;59686;51.716;7.016;2023-12-29T09:26:47;10.80;99.60
71837;DHT22;59686;51.716;7.016;2023-12-29T09:29:21;10.80;99.70
71837;DHT22;59686;51.716;7.016;2023-12-29T09:31:47;10.80;99.70
71837;DHT22;59686;51.716;7.016;2023-12-29T09:34:13;10.80;99.60
71837;DHT22;59686;51.716;7.016;2023-12-29T09:36:41;10.80;99.70
71837;DHT22;59686;51.716;7.016;2023-12-29T09:39:06;10.80;99.60
71837;DHT22;59686;51.716;7.016;2023-12-29T09:41:33;10.80;99.60
71837;DHT22;59686;51.716;7.016;2023-12-29T09:44:04;10.90;99.60
71837;DHT22;59686;51.716;7.016;2023-12-29T09:46:33;10.80;99.60
71837;DHT22;59686;51.716;7.016;2023-12-29T09:49:03;10.80;99.60
71837;DHT22;59686;51.716;7.016;2023-12-29T09:51:43;10.90;99.70
71837;DHT22;59686;51.716;7.016;2023-12-29T09:54:09;10.90;99.60
71837;DHT22;59686;51.716;7.016;2023-12-29T09:56:37;10.90;99.50
71837;DHT22;59686;51.716;7.016;2023-12-29T09:59:03;10.90;99.50
71837;DHT22;59686;51.716;7.016;2023-12-29T10:01:29;10.90;99.50
71837;DHT22;59686;51.716;7.016;2023-12-29T10:03:57;10.90;99.50
71837;DHT22;59686;51.716;7.016;2023-12-29T10:06:36;10.90;99.50
71837;DHT22;59686;51.716;7.016;2023-12-29T10:09:04;10.90;99.50
71837;DHT22;59686;51.716;7.016;2023-12-29T10:11:40;10.90;99.50
71837;DHT22;59686;51.716;7.016;2023-12-29T10:14:23;10.90;99.50
71837;DHT22;59686;51.716;7.016;2023-12-29T10:17:03;10.90;99.50
71837;DHT22;59686;51.716;7.016;2023-12-29T10:19:45;10.90;99.50
71837;DHT22;59686;51.716;7.016;2023-12-29T10:22:29;10.90;99.50
71837;DHT22;59686;51.716;7.016;2023-12-29T10:25:14;10.90;99.50
71837;DHT22;59686;51.716;7.016;2023-12-29T10:27:40;10.90;99.50
71837;DHT22;59686;51.716;7.016;2023-12-29T10:30:41;10.90;99.50
71837;DHT22;59686;51.716;7.016;2023-12-29T10:33:07;10.90;99.50
71837;DHT22;59686;51.716;7.016;2023-12-29T10:35:36;10.90;99.60
71837;DHT22;59686;51.716;7.016;2023-12-29T10:38:12;10.90;99.50
71837;DHT22;59686;51.716;7.016;2023-12-29T10:40:39;10.90;99.50
71837;DHT22;59686;51.716;7.016;2023-12-29T10:43:05;10.90;99.50
71837;DHT22;59686;51.716;7.016;2023-12-29T10:45:33;10.90;99.50
71837;DHT22;59686;51.716;7.016;2023-12-29T10:48:00;10.90;99.50
71837;DHT22;59686;51.716;7.016;2023-12-29T10:50:26;10.90;99.50
71837;DHT22;59686;51.716;7.016;2023-12-29T10:53:10;11.00;99.90
71837;DHT22;59686;51.716;7.016;2023-12-29T10:55:37;10.90;99.50
71837;DHT22;59686;51.716;7.016;2023-12-29T10:58:03;10.90;99.50
71837;DHT22;59686;51.716;7.016;2023-12-29T11:00:32;10.90;99.50
71837;DHT22;59686;51.716;7.016;2023-12-29T11:03:03;10.90;99.60
71837;DHT22;59686;51.716;7.016;2023-12-29T11:05:29;10.90;99.60
71837;DHT22;59686;51.716;7.016;2023-12-29T11:07:55;10.90;99.60
71837;DHT22;59686;51.716;7.016;2023-12-29T11:10:21;10.90;99.60
71837;DHT22;59686;51.716;7.016;2023-12-29T11:12:48;10.80;99.60
71837;DHT22;59686;51.716;7.016;2023-12-29T11:15:15;10.90;99.60
71837;DHT22;59686;51.716;7.016;2023-12-29T11:17:42;10.90;99.60
71837;DHT22;59686;51.716;7.016;2023-12-29T11:20:15;11.00;99.60
71837;DHT22;59686;51.716;7.016;2023-12-29T11:22:42;11.00;99.60
71837;DHT22;59686;51.716;7.016;2023-12-29T11:25:09;11.00;99.50
71837;DHT22;59686;51.716;7.016;2023-12-29T11:27:35;11.00;99.40
71837;DHT22;59686;51.716;7.016;2023-12-29T11:30:02;11.00;99.40
71837;DHT22;59686;51.716;7.016;2023-12-29T11:32:53;11.00;99.40
71837;DHT22;59686;51.716;7.016;2023-12-29T11:35:28;11.00;99.40
71837;DHT22;59686;51.716;7.016;2023-12-29T11:38:24;11.00;99.30
71837;DHT22;59686;51.716;7.016;2023-12-29T11:43:32;11.00;99.30
71837;DHT22;59686;51.716;7.016;2023-12-29T11:45:59;11.00;99.30
71837;DHT22;59686;51.716;7.016;2023-12-29T11:48:53;11.00;99.30
71837;DHT22;59686;51.716;7.016;2023-12-29T11:52:02;11.00;99.30
71837;DHT22;59686;51.716;7.016;2023-12-29T11:54:25;11.00;99.30
71837;DHT22;59686;51.716;7.016;2023-12-29T11:56:53;11.00;99.30
71837;DHT22;59686;51.716;7.016;2023-12-29T11:59:20;11.00;99.30
71837;DHT22;59686;51.716;7.016;2023-12-29T12:01:50;11.00;99.30
71837;DHT22;59686;51.716;7.016;2023-12-29T12:10:29;11.00;99.30
71837;DHT22;59686;51.716;7.016;2023-12-29T12:12:56;10.90;99.30
71837;DHT22;59686;51.716;7.016;2023-12-29T12:17:52;11.00;99.20
71837;DHT22;59686;51.716;7.016;2023-12-29T12:20:38;11.00;99.20
71837;DHT22;59686;51.716;7.016;2023-12-29T12:23:17;11.10;99.20
71837;DHT22;59686;51.716;7.016;2023-12-29T12:25:43;11.00;99.20
71837;DHT22;59686;51.716;7.016;2023-12-29T12:28:14;11.10;99.20
71837;DHT22;59686;51.716;7.016;2023-12-29T12:30:43;11.10;99.20
71837;DHT22;59686;51.716;7.016;2023-12-29T12:33:09;11.10;99.20
71837;DHT22;59686;51.716;7.016;2023-12-29T12:35:39;11.10;99.20
71837;DHT22;59686;51.716;7.016;2023-12-29T12:38:16;11.00;99.20
71837;DHT22;59686;51.716;7.016;2023-12-29T12:40:46;11.10;99.20
71837;DHT22;59686;51.716;7.016;2023-12-29T12:43:16;11.10;99.10
71837;DHT22;59686;51.716;7.016;2023-12-29T12:45:53;11.10;99.10
71837;DHT22;59686;51.716;7.016;2023-12-29T12:51:06;11.10;99.20
71837;DHT22;59686;51.716;7.016;2023-12-29T12:53:32;11.10;99.20
71837;DHT22;59686;51.716;7.016;2023-12-29T12:55:58;11.10;99.20
71837;DHT22;59686;51.716;7.016;2023-12-29T12:58:26;11.10;99.20
71837;DHT22;59686;51.716;7.016;2023-12-29T13:00:57;11.00;99.20
71837;DHT22;59686;51.716;7.016;2023-12-29T13:03:23;11.00;99.30
71837;DHT22;59686;51.716;7.016;2023-12-29T13:05:49;11.00;99.40
71837;DHT22;59686;51.716;7.016;2023-12-29T13:08:16;11.00;99.60
71837;DHT22;59686;51.716;7.016;2023-12-29T13:10:54;10.90;99.60
71837;DHT22;59686;51.716;7.016;2023-12-29T13:13:20;10.90;99.70
71837;DHT22;59686;51.716;7.016;2023-12-29T13:15:54;10.90;99.80
71837;DHT22;59686;51.716;7.016;2023-12-29T13:18:29;10.90;99.90
71837;DHT22;59686;51.716;7.016;2023-12-29T13:20:54;10.90;99.90
71837;DHT22;59686;51.716;7.016;2023-12-29T13:23:25;10.90;99.90
71837;DHT22;59686;51.716;7.016;2023-12-29T13:25:54;10.90;99.90
71837;DHT22;59686;51.716;7.016;2023-12-29T13:28:31;10.90;99.90
71837;DHT22;59686;51.716;7.016;2023-12-29T13:30:58;10.80;99.90
71837;DHT22;59686;51.716;7.016;2023-12-29T13:36:23;10.90;99.90
71837;DHT22;59686;51.716;7.016;2023-12-29T13:39:03;10.90;99.90
71837;DHT22;59686;51.716;7.016;2023-12-29T13:41:32;10.90;99.90
71837;DHT22;59686;51.716;7.016;2023-12-29T13:43:59;10.80;99.90
71837;DHT22;59686;51.716;7.016;2023-12-29T13:46:26;10.80;99.90
71837;DHT22;59686;51.716;7.016;2023-12-29T13:48:52;10.80;99.90
71837;DHT22;59686;51.716;7.016;2023-12-29T13:51:24;10.80;99.90
71837;DHT22;59686;51.716;7.016;2023-12-29T13:53:57;10.80;99.90
71837;DHT22;59686;51.716;7.016;2023-12-29T13:56:23;10.80;99.90
71837;DHT22;59686;51.716;7.016;2023-12-29T13:58:56;10.80;99.90
71837;DHT22;59686;51.716;7.016;2023-12-29T14:01:22;10.80;99.90
71837;DHT22;59686;51.716;7.016;2023-12-29T14:03:55;10.80;99.90
71837;DHT22;59686;51.716;7.016;2023-12-29T14:06:36;10.80;99.90
71837;DHT22;59686;51.716;7.016;2023-12-29T14:09:03;10.90;99.90
71837;DHT22;59686;51.716;7.016;2023-12-29T14:11:29;10.80;99.90
71837;DHT22;59686;51.716;7.016;2023-12-29T14:13:56;10.90;99.90
71837;DHT22;59686;51.716;7.016;2023-12-29T14:16:22;10.80;99.90
71837;DHT22;59686;51.716;7.016;2023-12-29T14:18:55;10.90;99.90
71837;DHT22;59686;51.716;7.016;2023-12-29T14:21:30;10.80;99.90
71837;DHT22;59686;51.716;7.016;2023-12-29T14:24:12;10.80;99.90
71837;DHT22;59686;51.716;7.016;2023-12-29T14:26:40;10.80;99.90
71837;DHT22;59686;51.716;7.016;2023-12-29T14:29:08;10.80;99.90
71837;DHT22;59686;51.716;7.016;2023-12-29T14:31:43;10.80;99.90
71837;DHT22;59686;51.716;7.016;2023-12-29T14:34:10;10.80;99.90
71837;DHT22;59686;51.716;7.016;2023-12-29T14:36:36;10.80;99.90
71837;DHT22;59686;51.716;7.016;2023-12-29T14:39:03;10.80;99.90
71837;DHT22;59686;51.716;7.016;2023-12-29T14:41:30;10.80;99.90
71837;DHT22;59686;51.716;7.016;2023-12-29T14:43:56;10.80;99.90
71837;DHT22;59686;51.716;7.016;2023-12-29T14:46:22;10.80;99.90
71837;DHT22;59686;51.716;7.016;2023-12-29T14:48:48;10.80;99.90
71837;DHT22;59686;51.716;7.016;2023-12-29T14:51:14;10.80;99.90
71837;DHT22;59686;51.716;7.016;2023-12-29T14:53:43;10.80;99.90
71837;DHT22;59686;51.716;7.016;2023-12-29T14:56:10;10.70;99.90
71837;DHT22;59686;51.716;7.016;2023-12-29T14:58:36;10.80;99.90
71837;DHT22;59686;51.716;7.016;2023-12-29T15:01:02;10.80;99.90
71837;DHT22;59686;51.716;7.016;2023-12-29T15:03:29;10.80;99.90
71837;DHT22;59686;51.716;7.016;2023-12-29T15:05:54;10.70;99.90
71837;DHT22;59686;51.716;7.016;2023-12-29T15:08:20;10.90;99.90
71837;DHT22;59686;51.716;7.016;2023-12-29T15:10:46;10.90;99.90
71837;DHT22;59686;51.716;7.016;2023-12-29T15:13:12;10.90;99.90
71837;DHT22;59686;51.716;7.016;2023-12-29T15:15:46;10.90;99.90
71837;DHT22;59686;51.716;7.016;2023-12-29T15:18:12;10.90;99.90
71837;DHT22;59686;51.716;7.016;2023-12-29T15:20:37;10.90;99.90
71837;DHT22;59686;51.716;7.016;2023-12-29T15:23:03;10.90;99.90
71837;DHT22;59686;51.716;7.016;2023-12-29T15:25:29;10.90;99.90
71837;DHT22;59686;51.716;7.016;2023-12-29T15:27:54;10.90;99.90
71837;DHT22;59686;51.716;7.016;2023-12-29T15:30:22;10.90;99.90
71837;DHT22;59686;51.716;7.016;2023-12-29T15:32:48;10.90;99.90
71837;DHT22;59686;51.716;7.016;2023-12-29T15:35:14;10.90;99.90
71837;DHT22;59686;51.716;7.016;2023-12-29T15:37:39;10.90;99.90
71837;DHT22;59686;51.716;7.016;2023-12-29T15:40:05;10.80;99.90
71837;DHT22;59686;51.716;7.016;2023-12-29T15:42:32;10.80;99.90
71837;DHT22;59686;51.716;7.016;2023-12-29T15:44:58;10.80;99.90
71837;DHT22;59686;51.716;7.016;2023-12-29T15:47:24;10.80;99.90
71837;DHT22;59686;51.716;7.016;2023-12-29T15:49:50;10.80;99.90
71837;DHT22;59686;51.716;7.016;2023-12-29T15:52:16;10.70;99.90